sensor_id;sensor_type;location;lat;lon;timestamp;P1;durP1;ratioP1;P2;durP2;ratioP2
61739;SDS011;47645;45.288;12.038;2023-05-07T00:01:00;13.9;;;8.3;;
61739;SDS011;47645;45.288;12.038;2023-05-07T00:11:02;8.8;;;6.8;;
61739;SDS011;47645;45.288;12.038;2023-05-07T00:21:02;12.5;;;9.3;;
61739;SDS011;47645;45.288;12.038;2023-05-07T00:31:04;9.5;;;7.4;;
61739;SDS011;47645;45.288;12.038;2023-05-07T00:41:05;12.5;;;9.8;;
61739;SDS011;47645;45.288;12.038;2023-05-07T00:51:06;11.4;;;8.9;;
61739;SDS011;47645;45.288;12.038;2023-05-07T01:01:07;11.8;;;9.6;;
61739;SDS011;47645;45.288;12.038;2023-05-07T01:11:08;12.0;;;9.7;;
61739;SDS011;47645;45.288;12.038;2023-05-07T01:21:10;11.6;;;8.8;;
61739;SDS011;47645;45.288;12.038;2023-05-07T01:31:10;9.1;;;6.6;;
61739;SDS011;47645;45.288;12.038;2023-05-07T01:41:11;11.3;;;8.7;;
61739;SDS011;47645;45.288;12.038;2023-05-07T01:51:12;6.3;;;5.1;;
61739;SDS011;47645;45.288;12.038;2023-05-07T02:01:14;12.2;;;8.7;;
61739;SDS011;47645;45.288;12.038;2023-05-07T02:11:14;10.6;;;8.5;;
61739;SDS011;47645;45.288;12.038;2023-05-07T02:21:15;13.1;;;10.5;;
61739;SDS011;47645;45.288;12.038;2023-05-07T02:31:17;11.6;;;9.2;;
61739;SDS011;47645;45.288;12.038;2023-05-07T02:41:18;10.2;;;7.4;;
61739;SDS011;47645;45.288;12.038;2023-05-07T02:51:19;10.1;;;7.1;;
61739;SDS011;47645;45.288;12.038;2023-05-07T03:01:21;11.0;;;8.1;;
61739;SDS011;47645;45.288;12.038;2023-05-07T03:11:21;12.1;;;8.4;;
61739;SDS011;47645;45.288;12.038;2023-05-07T03:21:22;9.2;;;7.8;;
61739;SDS011;47645;45.288;12.038;2023-05-07T03:31:23;14.0;;;9.6;;
61739;SDS011;47645;45.288;12.038;2023-05-07T03:41:24;10.2;;;7.5;;
61739;SDS011;47645;45.288;12.038;2023-05-07T03:51:25;8.7;;;6.6;;
61739;SDS011;47645;45.288;12.038;2023-05-07T04:01:26;12.3;;;9.5;;
61739;SDS011;47645;45.288;12.038;2023-05-07T04:11:27;13.4;;;11.0;;
61739;SDS011;47645;45.288;12.038;2023-05-07T04:21:28;8.4;;;6.4;;
61739;SDS011;47645;45.288;12.038;2023-05-07T04:31:31;12.9;;;10.5;;
61739;SDS011;47645;45.288;12.038;2023-05-07T04:41:30;16.7;;;13.0;;
61739;SDS011;47645;45.288;12.038;2023-05-07T04:51:32;22.3;;;16.3;;
61739;SDS011;47645;45.288;12.038;2023-05-07T05:01:32;20.1;;;14.9;;
61739;SDS011;47645;45.288;12.038;2023-05-07T05:11:33;17.8;;;13.5;;
61739;SDS011;47645;45.288;12.038;2023-05-07T05:21:34;27.8;;;20.3;;
61739;SDS011;47645;45.288;12.038;2023-05-07T05:31:36;32.1;;;23.1;;
61739;SDS011;47645;45.288;12.038;2023-05-07T05:41:36;31.0;;;21.3;;
61739;SDS011;47645;45.288;12.038;2023-05-07T05:51:37;26.8;;;20.2;;
61739;SDS011;47645;45.288;12.038;2023-05-07T06:01:39;27.4;;;20.3;;
61739;SDS011;47645;45.288;12.038;2023-05-07T06:11:41;26.3;;;20.0;;
61739;SDS011;47645;45.288;12.038;2023-05-07T06:21:41;28.2;;;21.4;;
61739;SDS011;47645;45.288;12.038;2023-05-07T06:31:42;25.1;;;18.3;;
61739;SDS011;47645;45.288;12.038;2023-05-07T06:41:43;31.4;;;20.6;;
61739;SDS011;47645;45.288;12.038;2023-05-07T06:51:44;27.4;;;20.0;;
61739;SDS011;47645;45.288;12.038;2023-05-07T07:01:45;22.2;;;17.3;;
61739;SDS011;47645;45.288;12.038;2023-05-07T07:11:46;22.9;;;16.7;;
61739;SDS011;47645;45.288;12.038;2023-05-07T07:21:47;20.7;;;15.7;;
61739;SDS011;47645;45.288;12.038;2023-05-07T07:31:49;17.4;;;13.4;;
61739;SDS011;47645;45.288;12.038;2023-05-07T07:41:50;15.3;;;11.1;;
61739;SDS011;47645;45.288;12.038;2023-05-07T07:51:51;14.6;;;11.1;;
61739;SDS011;47645;45.288;12.038;2023-05-07T08:01:55;16.0;;;12.0;;
61739;SDS011;47645;45.288;12.038;2023-05-07T08:11:53;12.2;;;7.6;;
61739;SDS011;47645;45.288;12.038;2023-05-07T08:21:55;13.2;;;10.7;;
61739;SDS011;47645;45.288;12.038;2023-05-07T08:31:56;19.4;;;13.3;;
61739;SDS011;47645;45.288;12.038;2023-05-07T08:41:57;14.5;;;10.7;;
61739;SDS011;47645;45.288;12.038;2023-05-07T08:51:58;16.2;;;11.8;;
61739;SDS011;47645;45.288;12.038;2023-05-07T09:02:00;14.0;;;11.4;;
61739;SDS011;47645;45.288;12.038;2023-05-07T09:12:02;10.6;;;8.6;;
61739;SDS011;47645;45.288;12.038;2023-05-07T09:22:03;8.3;;;7.1;;
61739;SDS011;47645;45.288;12.038;2023-05-07T09:32:04;8.9;;;6.3;;
61739;SDS011;47645;45.288;12.038;2023-05-07T09:42:05;7.8;;;5.7;;
61739;SDS011;47645;45.288;12.038;2023-05-07T09:52:08;6.9;;;5.2;;
61739;SDS011;47645;45.288;12.038;2023-05-07T10:02:08;9.8;;;8.0;;
61739;SDS011;47645;45.288;12.038;2023-05-07T10:12:10;10.2;;;8.1;;
61739;SDS011;47645;45.288;12.038;2023-05-07T10:22:11;11.5;;;7.6;;
61739;SDS011;47645;45.288;12.038;2023-05-07T10:32:18;10.2;;;7.3;;
61739;SDS011;47645;45.288;12.038;2023-05-07T10:42:14;65.4;;;35.3;;
61739;SDS011;47645;45.288;12.038;2023-05-07T10:52:16;50.7;;;31.7;;
61739;SDS011;47645;45.288;12.038;2023-05-07T11:02:17;11.7;;;9.1;;
61739;SDS011;47645;45.288;12.038;2023-05-07T11:12:45;7.3;;;6.0;;
61739;SDS011;47645;45.288;12.038;2023-05-07T11:22:35;6.1;;;4.5;;
61739;SDS011;47645;45.288;12.038;2023-05-07T11:32:22;10.2;;;7.5;;
61739;SDS011;47645;45.288;12.038;2023-05-07T11:42:25;6.0;;;3.8;;
61739;SDS011;47645;45.288;12.038;2023-05-07T11:52:26;5.4;;;4.3;;
61739;SDS011;47645;45.288;12.038;2023-05-07T12:02:28;5.2;;;3.6;;
61739;SDS011;47645;45.288;12.038;2023-05-07T12:12:29;6.3;;;4.1;;
61739;SDS011;47645;45.288;12.038;2023-05-07T12:22:31;4.0;;;2.9;;
61739;SDS011;47645;45.288;12.038;2023-05-07T12:32:36;3.9;;;2.8;;
61739;SDS011;47645;45.288;12.038;2023-05-07T12:42:35;3.7;;;2.6;;
61739;SDS011;47645;45.288;12.038;2023-05-07T12:52:37;4.0;;;2.6;;
61739;SDS011;47645;45.288;12.038;2023-05-07T13:02:39;4.0;;;2.0;;
61739;SDS011;47645;45.288;12.038;2023-05-07T13:12:41;2.6;;;2.3;;
61739;SDS011;47645;45.288;12.038;2023-05-07T13:22:42;4.0;;;2.6;;
61739;SDS011;47645;45.288;12.038;2023-05-07T13:32:45;4.3;;;2.4;;
61739;SDS011;47645;45.288;12.038;2023-05-07T13:42:46;5.1;;;2.9;;
61739;SDS011;47645;45.288;12.038;2023-05-07T13:52:50;3.3;;;2.1;;
61739;SDS011;47645;45.288;12.038;2023-05-07T14:02:50;5.1;;;2.7;;
61739;SDS011;47645;45.288;12.038;2023-05-07T14:12:53;4.1;;;2.4;;
61739;SDS011;47645;45.288;12.038;2023-05-07T14:22:54;5.7;;;3.3;;
61739;SDS011;47645;45.288;12.038;2023-05-07T14:32:56;5.0;;;2.2;;
61739;SDS011;47645;45.288;12.038;2023-05-07T14:42:58;3.3;;;2.5;;
61739;SDS011;47645;45.288;12.038;2023-05-07T14:53:00;3.0;;;2.1;;
61739;SDS011;47645;45.288;12.038;2023-05-07T15:03:04;3.7;;;2.4;;
61739;SDS011;47645;45.288;12.038;2023-05-07T15:13:03;3.6;;;2.2;;
61739;SDS011;47645;45.288;12.038;2023-05-07T15:23:06;3.5;;;1.9;;
61739;SDS011;47645;45.288;12.038;2023-05-07T15:33:07;3.1;;;1.9;;
61739;SDS011;47645;45.288;12.038;2023-05-07T15:43:09;6.0;;;2.4;;
61739;SDS011;47645;45.288;12.038;2023-05-07T15:53:12;3.8;;;1.9;;
61739;SDS011;47645;45.288;12.038;2023-05-07T16:03:12;4.7;;;2.1;;
61739;SDS011;47645;45.288;12.038;2023-05-07T16:13:14;3.0;;;2.1;;
61739;SDS011;47645;45.288;12.038;2023-05-07T16:23:15;3.5;;;1.9;;
61739;SDS011;47645;45.288;12.038;2023-05-07T16:33:17;3.1;;;1.6;;
61739;SDS011;47645;45.288;12.038;2023-05-07T16:43:19;2.1;;;1.4;;
61739;SDS011;47645;45.288;12.038;2023-05-07T16:53:21;2.4;;;1.3;;
61739;SDS011;47645;45.288;12.038;2023-05-07T17:03:22;2.0;;;1.1;;
61739;SDS011;47645;45.288;12.038;2023-05-07T17:13:25;2.1;;;1.6;;
61739;SDS011;47645;45.288;12.038;2023-05-07T17:23:25;2.9;;;1.6;;
61739;SDS011;47645;45.288;12.038;2023-05-07T17:33:28;2.5;;;1.6;;
61739;SDS011;47645;45.288;12.038;2023-05-07T17:43:29;1.8;;;1.4;;
61739;SDS011;47645;45.288;12.038;2023-05-07T17:53:31;2.3;;;1.4;;
61739;SDS011;47645;45.288;12.038;2023-05-07T18:03:35;2.6;;;1.7;;
61739;SDS011;47645;45.288;12.038;2023-05-07T18:13:34;1.9;;;1.5;;
61739;SDS011;47645;45.288;12.038;2023-05-07T18:23:37;1.9;;;1.5;;
61739;SDS011;47645;45.288;12.038;2023-05-07T18:33:37;3.3;;;1.5;;
61739;SDS011;47645;45.288;12.038;2023-05-07T18:43:38;2.6;;;1.9;;
61739;SDS011;47645;45.288;12.038;2023-05-07T18:53:40;2.5;;;1.8;;
61739;SDS011;47645;45.288;12.038;2023-05-07T19:03:41;2.6;;;1.9;;
61739;SDS011;47645;45.288;12.038;2023-05-07T19:13:43;2.5;;;1.9;;
61739;SDS011;47645;45.288;12.038;2023-05-07T19:23:45;2.6;;;2.2;;
61739;SDS011;47645;45.288;12.038;2023-05-07T19:33:48;5.3;;;3.3;;
61739;SDS011;47645;45.288;12.038;2023-05-07T19:43:47;3.9;;;2.4;;
61739;SDS011;47645;45.288;12.038;2023-05-07T19:53:49;4.3;;;2.9;;
61739;SDS011;47645;45.288;12.038;2023-05-07T20:03:50;6.5;;;4.4;;
61739;SDS011;47645;45.288;12.038;2023-05-07T20:13:52;5.5;;;4.4;;
61739;SDS011;47645;45.288;12.038;2023-05-07T20:23:53;4.7;;;3.5;;
61739;SDS011;47645;45.288;12.038;2023-05-07T20:33:56;9.1;;;7.9;;
61739;SDS011;47645;45.288;12.038;2023-05-07T20:43:56;6.2;;;5.1;;
61739;SDS011;47645;45.288;12.038;2023-05-07T20:53:57;7.5;;;5.0;;
61739;SDS011;47645;45.288;12.038;2023-05-07T21:03:58;7.9;;;5.8;;
61739;SDS011;47645;45.288;12.038;2023-05-07T21:13:59;8.4;;;7.0;;
61739;SDS011;47645;45.288;12.038;2023-05-07T21:24:01;6.5;;;5.3;;
61739;SDS011;47645;45.288;12.038;2023-05-07T21:34:02;9.6;;;7.4;;
61739;SDS011;47645;45.288;12.038;2023-05-07T21:44:04;12.7;;;9.8;;
61739;SDS011;47645;45.288;12.038;2023-05-07T21:54:06;14.8;;;11.7;;
61739;SDS011;47645;45.288;12.038;2023-05-07T22:04:06;16.0;;;12.6;;
61739;SDS011;47645;45.288;12.038;2023-05-07T22:14:08;16.3;;;12.9;;
61739;SDS011;47645;45.288;12.038;2023-05-07T22:24:09;12.6;;;10.9;;
61739;SDS011;47645;45.288;12.038;2023-05-07T22:34:10;14.9;;;12.8;;
61739;SDS011;47645;45.288;12.038;2023-05-07T22:44:11;15.8;;;14.1;;
61739;SDS011;47645;45.288;12.038;2023-05-07T22:54:12;15.2;;;13.0;;
61739;SDS011;47645;45.288;12.038;2023-05-07T23:04:14;17.3;;;15.1;;
61739;SDS011;47645;45.288;12.038;2023-05-07T23:14:15;11.1;;;9.8;;
61739;SDS011;47645;45.288;12.038;2023-05-07T23:24:16;10.1;;;8.8;;
61739;SDS011;47645;45.288;12.038;2023-05-07T23:34:22;18.6;;;16.1;;
61739;SDS011;47645;45.288;12.038;2023-05-07T23:44:19;14.4;;;12.1;;
61739;SDS011;47645;45.288;12.038;2023-05-07T23:54:20;21.0;;;17.3;;
